TimeEDT,TemperatureF,Dew PointF,Humidity,Sea Level PressureIn,VisibilityMPH,Wind Direction,Wind SpeedMPH,Gust SpeedMPH,PrecipitationIn,Events,Conditions,WindDirDegrees,DateUTC
12:58 AM,60.1,48.4,65,30.07,10.0,SE,8.1,-,N/A,,Clear,140,2013-05-08 04:58:00
1:58 AM,58.1,48.0,69,30.06,10.0,SE,10.4,-,N/A,,Clear,140,2013-05-08 05:58:00
2:58 AM,56.7,49.8,78,30.06,10.0,SE,9.2,-,N/A,,Clear,140,2013-05-08 06:58:00
3:58 AM,55.2,49.5,81,30.06,10.0,SE,9.2,-,N/A,,Clear,140,2013-05-08 07:58:00
4:58 AM,55.2,48.7,79,30.06,10.0,SE,10.4,-,N/A,,Clear,140,2013-05-08 08:58:00
5:58 AM,55.0,48.9,80,30.07,10.0,SSE,10.4,-,N/A,,Clear,150,2013-05-08 09:58:00
6:58 AM,57.6,49.5,74,30.08,10.0,SSE,10.4,-,N/A,,Clear,150,2013-05-08 10:58:00
7:58 AM,62.2,50.5,65,30.09,10.0,SE,12.7,-,N/A,,Clear,140,2013-05-08 11:58:00
8:58 AM,63.7,50.7,63,30.09,10.0,SE,15.0,-,N/A,,Scattered Clouds,140,2013-05-08 12:58:00
9:58 AM,66.9,52.0,59,30.09,10.0,SE,13.8,-,N/A,,Partly Cloudy,140,2013-05-08 13:58:00
10:58 AM,72.9,53.2,50,30.07,10.0,SSE,13.8,19.6,N/A,,Partly Cloudy,160,2013-05-08 14:58:00
11:58 AM,76.5,52.3,43,30.06,10.0,SE,12.7,18.4,N/A,,Clear,140,2013-05-08 15:58:00
12:58 PM,78.6,50.4,37,30.04,10.0,South,9.2,17.3,N/A,,Clear,180,2013-05-08 16:58:00
1:58 PM,77.7,51.6,40,30.03,10.0,SSE,8.1,-,N/A,,Scattered Clouds,160,2013-05-08 17:58:00
2:25 PM,75.2,53.6,47,30.03,9.0,SE,12.7,-,N/A,Rain,Light Rain,140,2013-05-08 18:25:00
2:40 PM,66.2,57.2,73,30.04,4.0,ESE,12.7,26.5,N/A,Rain,Heavy Rain,120,2013-05-08 18:40:00
2:58 PM,65.7,57.7,76,30.03,9.0,ESE,3.5,-,0.10,Rain,Light Rain,120,2013-05-08 18:58:00
3:18 PM,66.2,59.0,78,30.03,10.0,West,8.1,-,N/A,Rain,Light Rain,280,2013-05-08 19:18:00
3:23 PM,66.2,62.6,88,30.03,10.0,West,9.2,-,N/A,Rain,Light Rain,270,2013-05-08 19:23:00
3:58 PM,65.5,63.1,92,30.03,10.0,West,5.8,-,0.01,,Light Drizzle,270,2013-05-08 19:58:00
4:21 PM,66.2,62.6,88,30.03,10.0,West,3.5,-,N/A,,Partly Cloudy,270,2013-05-08 20:21:00
4:30 PM,66.2,62.6,88,30.03,10.0,WSW,4.6,-,N/A,,Light Drizzle,240,2013-05-08 20:30:00
4:58 PM,66.0,61.0,84,30.03,10.0,Variable,4.6,-,0.00,Rain,Light Rain,0,2013-05-08 20:58:00
5:51 PM,62.6,62.6,100,30.02,10.0,SE,4.6,-,N/A,,Scattered Clouds,130,2013-05-08 21:51:00
5:58 PM,63.0,63.0,100,30.02,10.0,ESE,4.6,-,0.04,,Partly Cloudy,110,2013-05-08 21:58:00
6:11 PM,62.6,62.6,100,30.01,10.0,ESE,3.5,-,N/A,,Light Drizzle,110,2013-05-08 22:11:00
6:33 PM,62.6,62.6,100,30.00,10.0,North,2.3,-,N/A,,Scattered Clouds,360,2013-05-08 22:33:00
6:58 PM,63.0,63.0,100,30.00,10.0,North,2.3,-,0.00,,Mostly Cloudy,360,2013-05-08 22:58:00
7:34 PM,62.6,62.6,100,29.99,10.0,NNE,8.1,-,N/A,,Light Drizzle,30,2013-05-08 23:34:00
7:53 PM,62.6,62.6,100,29.99,10.0,ENE,6.9,-,N/A,,Overcast,60,2013-05-08 23:53:00
7:58 PM,62.1,62.1,100,29.99,10.0,NE,6.9,-,0.01,,Overcast,50,2013-05-08 23:58:00
8:26 PM,62.6,62.6,100,29.99,10.0,ENE,5.8,-,N/A,,Drizzle,70,2013-05-09 00:26:00
8:36 PM,62.6,62.6,100,29.98,10.0,ENE,5.8,-,N/A,,Mostly Cloudy,70,2013-05-09 00:36:00
8:48 PM,60.8,60.8,100,29.98,10.0,ENE,6.9,-,N/A,Rain,Light Rain,60,2013-05-09 00:48:00
8:57 PM,60.8,60.8,100,29.98,10.0,ENE,8.1,-,N/A,,Mostly Cloudy,60,2013-05-09 00:57:00
8:58 PM,60.8,60.8,100,29.98,10.0,ENE,8.1,-,0.00,,Mostly Cloudy,60,2013-05-09 00:58:00
9:58 PM,60.8,60.8,100,29.98,10.0,ENE,8.1,-,0.00,,Mostly Cloudy,70,2013-05-09 01:58:00
10:58 PM,60.8,60.8,100,29.98,10.0,East,5.8,-,N/A,,Overcast,100,2013-05-09 02:58:00
11:58 PM,59.7,59.7,100,29.96,10.0,ESE,2.3,-,N/A,,Partly Cloudy,120,2013-05-09 03:58:00